createdAt,value
2023-10-29T00:02:39.812Z,98776.72
2023-10-29T00:05:27.077Z,98770.09
2023-10-29T00:08:14.327Z,98751.03
2023-10-29T00:11:01.802Z,98751.31
2023-10-29T00:13:49.307Z,98749.38
2023-10-29T00:16:36.464Z,98745.16
2023-10-29T00:19:23.596Z,98749.38
2023-10-29T00:22:10.772Z,98738.56
2023-10-29T00:24:57.949Z,98733.06
2023-10-29T00:27:45.114Z,98737.75
2023-10-29T00:30:34.393Z,98717.84
2023-10-29T00:33:21.937Z,98697.41
2023-10-29T00:36:09.614Z,98684.72
2023-10-29T00:38:57.548Z,98688.53
2023-10-29T00:41:44.752Z,98684.38
2023-10-29T00:44:32.597Z,98688.53
2023-10-29T00:47:20.021Z,98696.81
2023-10-29T00:50:08.534Z,98696.25
2023-10-29T00:52:55.867Z,98680.75
2023-10-29T00:55:43.705Z,98688.78
2023-10-29T00:58:31.125Z,98697.91
2023-10-29T01:01:18.912Z,98694.06
2023-10-29T01:04:06.300Z,98680.75
2023-10-29T01:06:53.558Z,98677.16
2023-10-29T01:09:43.270Z,98669.13
2023-10-29T01:12:30.438Z,98681.88
2023-10-29T01:15:17.825Z,98679.09
2023-10-29T01:18:05.101Z,98677.41
2023-10-29T01:20:52.311Z,98655.34
2023-10-29T01:23:39.992Z,98647.88
2023-10-29T01:26:27.293Z,98639.88
2023-10-29T01:29:14.425Z,98633.50
2023-10-29T01:32:01.616Z,98626.06
2023-10-29T01:34:50.820Z,98632.66
2023-10-29T01:37:38.164Z,98643.72
2023-10-29T01:40:26.416Z,98651.41
2023-10-29T01:43:13.550Z,98640.94
2023-10-29T01:46:00.731Z,98641.19
2023-10-29T01:48:47.897Z,98639.53
2023-10-29T01:51:35.108Z,98624.88
2023-10-29T01:54:25.572Z,98622.97
2023-10-29T01:57:12.805Z,98618.28
2023-10-29T02:00:00.438Z,98612.19
2023-10-29T02:02:48.678Z,98609.44
2023-10-29T02:05:35.988Z,98615.78
2023-10-29T02:08:23.159Z,98611.63
2023-10-29T02:11:10.336Z,98614.38
2023-10-29T02:13:57.811Z,98608.84
2023-10-29T02:16:45.055Z,98618.78
2023-10-29T02:19:32.590Z,98617.38
2023-10-29T02:22:20.856Z,98624.31
2023-10-29T02:25:08.735Z,98601.91
2023-10-29T02:27:55.806Z,98606.91
2023-10-29T02:30:44.925Z,98623.47
2023-10-29T02:33:32.329Z,98604.41
2023-10-29T02:36:19.564Z,98632.00
2023-10-29T02:39:07.503Z,98620.97
2023-10-29T02:41:55.466Z,98617.63
2023-10-29T02:44:42.722Z,98612.09
2023-10-29T02:47:29.996Z,98625.31
2023-10-29T02:50:17.238Z,98614.28
2023-10-29T02:53:04.570Z,98606.00
2023-10-29T02:55:51.776Z,98593.88
2023-10-29T02:58:38.998Z,98593.53
2023-10-29T03:01:26.379Z,98611.53
2023-10-29T03:04:13.798Z,98607.09
2023-10-29T03:07:01.085Z,98610.09
2023-10-29T03:09:48.214Z,98601.56
2023-10-29T03:12:35.304Z,98593.53
2023-10-29T03:15:22.406Z,98601.00
2023-10-29T03:18:09.579Z,98593.25
2023-10-29T03:20:56.927Z,98598.47
2023-10-29T03:23:44.728Z,98605.94
2023-10-29T03:26:32.213Z,98608.69
2023-10-29T03:29:19.446Z,98603.16
2023-10-29T03:32:07.017Z,98601.75
2023-10-29T03:34:54.656Z,98604.28
2023-10-29T03:37:41.797Z,98613.63
2023-10-29T03:40:30.756Z,98603.66
2023-10-29T03:43:17.950Z,98616.38
2023-10-29T03:46:11.594Z,98615.56
2023-10-29T03:48:58.936Z,98609.78
2023-10-29T03:51:48.161Z,98606.44
2023-10-29T03:54:36.006Z,98603.09
2023-10-29T03:57:23.229Z,98597.31
2023-10-29T04:00:11.769Z,98605.59
2023-10-29T04:03:02.230Z,98603.66
2023-10-29T04:05:49.738Z,98599.25
2023-10-29T04:08:38.249Z,98603.09
2023-10-29T04:11:25.553Z,98604.78
2023-10-29T04:14:12.795Z,98603.09
2023-10-29T04:17:00.497Z,98602.25
2023-10-29T04:19:47.686Z,98605.84
2023-10-29T04:22:34.816Z,98611.88
2023-10-29T04:25:21.991Z,98609.72
2023-10-29T04:28:09.105Z,98631.78
2023-10-29T04:30:57.079Z,98622.66
2023-10-29T04:33:46.302Z,98621.81
2023-10-29T04:36:33.601Z,98638.38
2023-10-29T04:39:20.802Z,98630.09
2023-10-29T04:42:07.924Z,98632.84
2023-10-29T04:44:55.115Z,98624.00
2023-10-29T04:47:42.323Z,98627.59
2023-10-29T04:50:31.569Z,98617.66
2023-10-29T04:53:19.157Z,98619.31
2023-10-29T04:56:08.033Z,98624.00
2023-10-29T04:58:55.160Z,98628.94
2023-10-29T05:01:42.474Z,98622.31
2023-10-29T05:04:29.624Z,98621.75
2023-10-29T05:07:16.775Z,98631.69
2023-10-29T05:10:06.327Z,98641.06
2023-10-29T05:12:53.481Z,98644.38
2023-10-29T05:15:41.013Z,98642.75
2023-10-29T05:18:28.416Z,98648.84
2023-10-29T05:21:15.831Z,98671.16
2023-10-29T05:24:04.003Z,98680.88
2023-10-29T05:26:51.367Z,98673.66
2023-10-29T05:29:38.612Z,98671.97
2023-10-29T05:32:25.830Z,98661.28
2023-10-29T05:35:13.364Z,98684.22
2023-10-29T05:38:00.980Z,98680.34
2023-10-29T05:40:48.337Z,98661.63
2023-10-29T05:43:37.845Z,98682.88
2023-10-29T05:46:25.003Z,98676.03
2023-10-29T05:49:12.141Z,98699.19
2023-10-29T05:51:59.316Z,98690.06
2023-10-29T05:54:46.668Z,98696.75
2023-10-29T05:57:33.988Z,98690.41
2023-10-29T06:00:21.624Z,98691.22
2023-10-29T06:03:08.822Z,98706.97
2023-10-29T06:05:56.975Z,98740.09
2023-10-29T06:08:44.230Z,98725.19
2023-10-29T06:11:31.498Z,98727.34
2023-10-29T06:14:19.219Z,98747.25
2023-10-29T06:17:19.466Z,98736.22
2023-10-29T06:20:10.062Z,98753.94
2023-10-29T06:23:00.178Z,98764.50
2023-10-29T06:25:47.336Z,98761.84
2023-10-29T06:28:34.491Z,98774.03
2023-10-29T06:31:30.601Z,98771.38
2023-10-29T06:34:17.770Z,98782.25
2023-10-29T06:37:05.074Z,98778.72
2023-10-29T06:39:53.402Z,98780.50
2023-10-29T06:42:40.650Z,98778.38
2023-10-29T06:45:27.870Z,98782.38
2023-10-29T06:48:15.332Z,98798.84
2023-10-29T06:51:02.812Z,98795.03
2023-10-29T06:53:50.073Z,98799.81
2023-10-29T06:56:37.263Z,98813.72
2023-10-29T06:59:25.014Z,98815.72
2023-10-29T07:02:12.214Z,98822.09
2023-10-29T07:05:00.868Z,98825.53
2023-10-29T07:07:48.655Z,98824.75
2023-10-29T07:10:35.979Z,98827.25
2023-10-29T07:13:23.117Z,98843.34
2023-10-29T07:16:10.785Z,98852.22
2023-10-29T07:18:59.078Z,98863.59
2023-10-29T07:21:46.447Z,98860.59
2023-10-29T07:24:36.235Z,98862.56
2023-10-29T07:27:23.503Z,98871.19
2023-10-29T07:30:11.324Z,98868.75
2023-10-29T07:32:58.966Z,98869.09
2023-10-29T07:35:46.537Z,98875.81
2023-10-29T07:38:33.959Z,98884.69
2023-10-29T07:41:22.890Z,98890.78
2023-10-29T07:44:10.148Z,98890.88
2023-10-29T07:46:57.394Z,98886.50
2023-10-29T07:49:44.576Z,98891.03
2023-10-29T07:52:31.843Z,98889.41
2023-10-29T07:55:20.411Z,98900.56
2023-10-29T07:58:07.557Z,98907.56
2023-10-29T08:00:54.725Z,98894.06
2023-10-29T08:03:44.167Z,98899.66
2023-10-29T08:06:31.383Z,98910.50
2023-10-29T08:09:18.654Z,98905.28
2023-10-29T08:12:06.299Z,98905.38
2023-10-29T08:14:53.709Z,98913.41
2023-10-29T08:17:41.139Z,98927.09
2023-10-29T08:20:28.480Z,98929.94
2023-10-29T08:23:16.071Z,98943.25
2023-10-29T08:26:04.130Z,98947.16
2023-10-29T08:28:51.268Z,98941.69
2023-10-29T08:31:38.579Z,98951.69
2023-10-29T08:34:26.028Z,98962.75
2023-10-29T08:37:13.343Z,98954.44
2023-10-29T08:40:00.679Z,98955.53
2023-10-29T08:42:47.873Z,98961.06
2023-10-29T08:45:42.181Z,98962.75
2023-10-29T08:48:30.138Z,98958.88
2023-10-29T08:51:17.302Z,98968.38
2023-10-29T08:54:05.274Z,98967.25
2023-10-29T08:56:52.417Z,98987.75
2023-10-29T08:59:40.472Z,98989.16
2023-10-29T09:02:27.653Z,98995.00
2023-10-29T09:05:16.394Z,98987.28
2023-10-29T09:08:05.360Z,99000.63
2023-10-29T09:10:52.534Z,99007.81
2023-10-29T09:13:39.692Z,99009.50
2023-10-29T09:16:26.926Z,99031.16
2023-10-29T09:19:15.006Z,99041.69
2023-10-29T09:22:02.149Z,99046.41
2023-10-29T09:24:49.769Z,99034.81
2023-10-29T09:27:37.458Z,99054.53
2023-10-29T09:30:24.658Z,99054.53
2023-10-29T09:33:14.371Z,99034.84
2023-10-29T09:36:01.841Z,99039.63
2023-10-29T09:38:49.978Z,99042.41
2023-10-29T09:41:39.848Z,99026.34
2023-10-29T09:44:32.202Z,99033.00
2023-10-29T09:47:23.120Z,99036.94
2023-10-29T09:50:10.784Z,99065.81
2023-10-29T09:52:59.713Z,99056.41
2023-10-29T09:55:49.766Z,99041.50
2023-10-29T09:58:37.910Z,99050.97
2023-10-29T10:01:25.108Z,99048.78
2023-10-29T10:04:12.525Z,99055.50
2023-10-29T10:07:00.758Z,99049.94
2023-10-29T10:09:53.219Z,99028.34
2023-10-29T10:12:51.385Z,99020.59
2023-10-29T10:15:39.441Z,99012.91
2023-10-29T10:18:26.669Z,99016.25
2023-10-29T10:21:14.798Z,99025.72
2023-10-29T10:24:02.078Z,99026.81
2023-10-29T10:26:50.027Z,99021.78
2023-10-29T10:29:38.172Z,99017.59
2023-10-29T10:32:25.529Z,99021.75
2023-10-29T10:35:12.681Z,99016.13
2023-10-29T10:37:59.873Z,99010.53
2023-10-29T10:40:48.782Z,99021.31
2023-10-29T10:43:35.997Z,99029.84
2023-10-29T10:46:24.521Z,99031.75
2023-10-29T10:49:12.461Z,99030.56
2023-10-29T10:52:02.638Z,99043.50
2023-10-29T10:54:50.824Z,99057.94
2023-10-29T10:57:38.056Z,99051.81
2023-10-29T11:00:25.246Z,99060.72
2023-10-29T11:03:28.968Z,99049.56
2023-10-29T11:06:19.342Z,99049.03
2023-10-29T11:09:13.604Z,99051.22
2023-10-29T11:12:01.146Z,99054.00
2023-10-29T11:15:18.294Z,99046.88
2023-10-29T11:18:05.848Z,99054.06
2023-10-29T11:20:54.703Z,99047.69
2023-10-29T11:23:41.942Z,99040.22
2023-10-29T11:26:29.584Z,99031.91
2023-10-29T11:29:43.567Z,99018.88
2023-10-29T11:32:30.732Z,99020.31
2023-10-29T11:35:20.673Z,99018.63
2023-10-29T11:38:31.756Z,99004.19
2023-10-29T11:41:39.977Z,98995.63
2023-10-29T11:44:33.926Z,98990.91
2023-10-29T11:47:21.064Z,98985.94
2023-10-29T11:50:08.429Z,98985.09
2023-10-29T11:52:55.595Z,98971.00
2023-10-29T11:55:43.801Z,98957.66
2023-10-29T11:58:31.196Z,98949.91
2023-10-29T12:01:20.509Z,98953.25
2023-10-29T12:04:10.261Z,98947.72
2023-10-29T12:07:00.312Z,98954.97
2023-10-29T12:09:47.710Z,98953.25
2023-10-29T12:12:36.146Z,98935.78
2023-10-29T12:15:25.340Z,98938.09
2023-10-29T12:18:21.437Z,98951.59
2023-10-29T12:21:11.144Z,98969.97
2023-10-29T12:23:59.008Z,98972.16
2023-10-29T12:26:46.666Z,98958.31
2023-10-29T12:29:33.840Z,98951.09
2023-10-29T12:32:28.285Z,98951.94
2023-10-29T12:35:15.502Z,98960.81
2023-10-29T12:38:02.856Z,98962.75
2023-10-29T12:41:09.588Z,98951.59
2023-10-29T12:43:58.597Z,98962.38
2023-10-29T12:46:52.706Z,98968.72
2023-10-29T12:49:39.964Z,98970.41
2023-10-29T12:52:27.517Z,98971.19
2023-10-29T12:55:14.707Z,98967.28
2023-10-29T12:58:05.045Z,98963.69
2023-10-29T13:00:56.070Z,98943.13
2023-10-29T13:03:44.392Z,98966.97
2023-10-29T13:06:33.878Z,98974.19
2023-10-29T13:09:26.863Z,98970.25
2023-10-29T13:12:14.144Z,98961.94
2023-10-29T13:15:01.872Z,98960.78
2023-10-29T13:17:49.508Z,98951.91
2023-10-29T13:20:36.817Z,98957.44
2023-10-29T13:23:24.081Z,98934.47
2023-10-29T13:26:11.255Z,98920.34
2023-10-29T13:28:58.470Z,98918.41
2023-10-29T13:31:47.091Z,98909.59
2023-10-29T13:34:34.426Z,98908.72
2023-10-29T13:37:21.538Z,98918.47
2023-10-29T13:40:10.180Z,98926.50
2023-10-29T13:42:57.368Z,98934.53
2023-10-29T13:45:44.730Z,98935.66
2023-10-29T13:48:32.410Z,98938.16
2023-10-29T13:51:22.951Z,98944.28
2023-10-29T13:54:10.274Z,98932.34
2023-10-29T13:56:58.118Z,98943.75
2023-10-29T13:59:48.438Z,98934.28
2023-10-29T14:02:36.619Z,98938.75
2023-10-29T14:05:24.052Z,98930.44
2023-10-29T14:08:11.269Z,98925.16
2023-10-29T14:10:58.438Z,98919.84
2023-10-29T14:13:47.063Z,98900.16
2023-10-29T14:16:40.613Z,98898.19
2023-10-29T14:19:27.867Z,98896.25
2023-10-29T14:22:15.517Z,98906.44
2023-10-29T14:25:04.844Z,98889.50
2023-10-29T14:27:52.085Z,98890.28
2023-10-29T14:30:41.560Z,98873.09
2023-10-29T14:33:29.054Z,98877.47
2023-10-29T14:36:16.274Z,98872.72
2023-10-29T14:39:03.950Z,98850.25
2023-10-29T14:41:51.165Z,98845.50
2023-10-29T14:44:38.318Z,98836.88
2023-10-29T14:47:25.506Z,98832.97
2023-10-29T14:50:14.106Z,98839.34
2023-10-29T14:53:01.239Z,98837.91
2023-10-29T14:55:49.004Z,98840.38
2023-10-29T14:58:36.237Z,98832.31
2023-10-29T15:01:25.844Z,98838.34
2023-10-29T15:04:13.417Z,98858.84
2023-10-29T15:07:00.648Z,98846.59
2023-10-29T15:09:47.873Z,98863.22
2023-10-29T15:12:36.326Z,98880.84
2023-10-29T15:15:29.719Z,98884.72
2023-10-29T15:18:19.433Z,98888.59
2023-10-29T15:21:12.343Z,98891.59
2023-10-29T15:24:00.073Z,98885.50
2023-10-29T15:26:47.312Z,98894.06
2023-10-29T15:29:34.550Z,98882.41
2023-10-29T15:32:21.823Z,98884.59
2023-10-29T15:35:10.207Z,98882.91
2023-10-29T15:37:57.450Z,98872.38
2023-10-29T15:40:44.682Z,98878.75
2023-10-29T15:43:33.970Z,98877.31
2023-10-29T15:46:22.798Z,98883.38
2023-10-29T15:49:10.135Z,98886.13
2023-10-29T15:51:58.639Z,98886.91
2023-10-29T15:54:46.291Z,98892.19
2023-10-29T15:57:33.634Z,98888.84
2023-10-29T16:00:20.840Z,98892.69
2023-10-29T16:03:08.141Z,98887.69
2023-10-29T16:05:55.496Z,98888.19
2023-10-29T16:08:42.699Z,98895.41
2023-10-29T16:11:29.985Z,98890.38
2023-10-29T16:14:17.192Z,98890.38
2023-10-29T16:17:05.131Z,98876.78
2023-10-29T16:19:52.235Z,98890.03
2023-10-29T16:22:39.417Z,98893.06
2023-10-29T16:25:26.594Z,98890.78
2023-10-29T16:28:13.924Z,98881.09
2023-10-29T16:31:01.100Z,98879.66
2023-10-29T16:33:48.626Z,98886.88
2023-10-29T16:36:35.953Z,98886.88
2023-10-29T16:39:24.699Z,98891.56
2023-10-29T16:42:12.033Z,98886.88
2023-10-29T16:45:01.885Z,98885.78
2023-10-29T16:47:49.388Z,98887.69
2023-10-29T16:50:52.418Z,98896.25
2023-10-29T16:53:43.766Z,98903.47
2023-10-29T16:56:30.928Z,98897.94
2023-10-29T16:59:19.728Z,98902.28
2023-10-29T17:02:07.036Z,98922.47
2023-10-29T17:04:54.244Z,98924.16
2023-10-29T17:07:41.367Z,98924.41
2023-10-29T17:10:28.541Z,98928.25
2023-10-29T17:13:17.311Z,98941.25
2023-10-29T17:16:05.859Z,98947.25
2023-10-29T17:18:53.365Z,98946.44
2023-10-29T17:21:40.561Z,98946.69
2023-10-29T17:24:28.189Z,98958.00
2023-10-29T17:27:15.417Z,98965.47
2023-10-29T17:30:04.976Z,98967.63
2023-10-29T17:32:58.630Z,98978.94
2023-10-29T17:35:46.443Z,98976.72
2023-10-29T17:38:33.604Z,98978.84
2023-10-29T17:41:22.986Z,98970.84
2023-10-29T17:44:10.327Z,98992.97
2023-10-29T17:46:58.773Z,99002.31
2023-10-29T17:49:45.936Z,99010.03
2023-10-29T17:52:34.436Z,99027.94
2023-10-29T17:55:21.588Z,99033.47
2023-10-29T17:58:08.840Z,99036.50
2023-10-29T18:00:56.190Z,99028.47
2023-10-29T18:03:45.475Z,99032.28
2023-10-29T18:06:32.992Z,99044.47
2023-10-29T18:09:20.659Z,99051.06
2023-10-29T18:12:08.051Z,99058.78
2023-10-29T18:14:55.297Z,99067.06
2023-10-29T18:17:42.546Z,99070.31
2023-10-29T18:20:29.809Z,99078.59
2023-10-29T18:23:17.690Z,99084.13
2023-10-29T18:26:04.932Z,99095.44
2023-10-29T18:28:52.079Z,99104.00
2023-10-29T18:31:39.472Z,99103.13
2023-10-29T18:34:26.821Z,99124.41
2023-10-29T18:37:14.436Z,99115.53
2023-10-29T18:40:01.594Z,99123.81
2023-10-29T18:42:49.372Z,99120.22
2023-10-29T18:45:41.171Z,99128.53
2023-10-29T18:48:28.463Z,99147.50
2023-10-29T18:51:17.660Z,99141.97
2023-10-29T18:54:07.208Z,99154.69
2023-10-29T18:56:55.919Z,99161.09
2023-10-29T18:59:43.195Z,99160.75
2023-10-29T19:02:30.617Z,99165.16
2023-10-29T19:05:18.125Z,99166.25
2023-10-29T19:08:05.319Z,99168.41
2023-10-29T19:10:52.496Z,99177.78
2023-10-29T19:13:39.750Z,99181.16
2023-10-29T19:16:27.057Z,99188.84
2023-10-29T19:19:17.960Z,99194.38
2023-10-29T19:22:06.029Z,99192.69
2023-10-29T19:24:53.542Z,99198.22
2023-10-29T19:27:40.769Z,99208.44
2023-10-29T19:30:28.698Z,99216.13
2023-10-29T19:33:15.866Z,99220.81
2023-10-29T19:36:13.870Z,99221.66
2023-10-29T19:39:01.134Z,99224.66
2023-10-29T19:41:49.119Z,99230.19
2023-10-29T19:44:38.350Z,99237.88
2023-10-29T19:47:26.978Z,99244.47
2023-10-29T19:50:16.603Z,99247.25
2023-10-29T19:53:04.294Z,99258.28
2023-10-29T19:55:51.591Z,99264.69
2023-10-29T19:58:39.002Z,99278.38
2023-10-29T20:01:26.271Z,99279.19
2023-10-29T20:04:13.718Z,99290.25
2023-10-29T20:07:01.002Z,99294.94
2023-10-29T20:09:48.467Z,99313.44
2023-10-29T20:12:36.824Z,99310.03
2023-10-29T20:15:26.325Z,99311.97
2023-10-29T20:18:13.601Z,99315.81
2023-10-29T20:21:00.909Z,99327.69
2023-10-29T20:23:48.544Z,99322.66
2023-10-29T20:26:35.891Z,99329.88
2023-10-29T20:29:23.087Z,99329.28
2023-10-29T20:32:10.389Z,99332.88
2023-10-29T20:34:57.715Z,99343.69
2023-10-29T20:37:45.185Z,99342.00
2023-10-29T20:40:32.354Z,99335.88
2023-10-29T20:43:19.498Z,99339.72
2023-10-29T20:46:07.005Z,99337.56
2023-10-29T20:48:54.219Z,99334.78
2023-10-29T20:51:41.480Z,99336.69
2023-10-29T20:54:28.709Z,99340.56
2023-10-29T20:57:15.961Z,99340.56
2023-10-29T21:00:06.234Z,99343.31
2023-10-29T21:02:53.652Z,99346.06
2023-10-29T21:05:41.000Z,99350.78
2023-10-29T21:08:28.454Z,99360.13
2023-10-29T21:11:17.971Z,99360.13
2023-10-29T21:14:05.675Z,99360.13
2023-10-29T21:16:52.825Z,99372.25
2023-10-29T21:19:40.003Z,99352.91
2023-10-29T21:22:27.162Z,99360.59
2023-10-29T21:25:15.458Z,99367.81
2023-10-29T21:28:02.821Z,99369.75
2023-10-29T21:30:51.286Z,99348.72
2023-10-29T21:33:39.332Z,99363.34
2023-10-29T21:36:26.637Z,99354.69
2023-10-29T21:39:13.975Z,99355.56
2023-10-29T21:42:01.293Z,99362.75
2023-10-29T21:44:48.609Z,99357.22
2023-10-29T21:47:38.780Z,99366.63
2023-10-29T21:50:26.180Z,99368.50
2023-10-29T21:53:13.376Z,99369.38
2023-10-29T21:56:06.367Z,99381.50
2023-10-29T21:58:53.625Z,99382.31
2023-10-29T22:01:40.763Z,99391.72
2023-10-29T22:04:31.510Z,99390.88
2023-10-29T22:07:18.742Z,99392.53
2023-10-29T22:10:06.627Z,99410.44
2023-10-29T22:12:54.466Z,99401.91
2023-10-29T22:15:41.603Z,99413.44
2023-10-29T22:18:28.858Z,99420.63
2023-10-29T22:21:16.070Z,99427.47
2023-10-29T22:24:03.414Z,99428.81
2023-10-29T22:26:51.118Z,99433.22
2023-10-29T22:29:38.257Z,99430.47
2023-10-29T22:32:25.553Z,99430.94
2023-10-29T22:35:12.673Z,99432.63
2023-10-29T22:38:00.293Z,99430.94
2023-10-29T22:40:47.427Z,99430.94
2023-10-29T22:43:35.928Z,99432.63
2023-10-29T22:46:23.833Z,99432.03
2023-10-29T22:49:11.083Z,99430.31
2023-10-29T22:51:58.230Z,99433.34
2023-10-29T22:54:49.449Z,99431.88
2023-10-29T22:57:36.687Z,99434.63
2023-10-29T23:00:24.383Z,99448.44
2023-10-29T23:03:11.743Z,99448.44
2023-10-29T23:06:04.371Z,99447.84
2023-10-29T23:08:51.582Z,99453.59
2023-10-29T23:11:38.666Z,99458.06
2023-10-29T23:14:25.772Z,99458.75
2023-10-29T23:17:12.931Z,99466.78
2023-10-29T23:20:00.203Z,99455.38
2023-10-29T23:22:47.689Z,99458.75
2023-10-29T23:25:34.900Z,99463.44
2023-10-29T23:28:36.504Z,99468.34
2023-10-29T23:31:24.891Z,99466.41
2023-10-29T23:34:12.102Z,99467.50
2023-10-29T23:36:59.249Z,99472.41
2023-10-29T23:39:46.619Z,99471.78
2023-10-29T23:42:35.094Z,99467.38
2023-10-29T23:45:22.825Z,99472.88
2023-10-29T23:48:10.874Z,99465.66
2023-10-29T23:50:58.150Z,99468.66
2023-10-29T23:53:45.287Z,99467.81
2023-10-29T23:56:32.401Z,99465.06
2023-10-29T23:59:19.581Z,99459.53
